createdAt,value
2022-09-03T00:00:54.833Z,83.93
2022-09-03T00:02:27.974Z,84.02
2022-09-03T00:03:45.011Z,84.07
2022-09-03T00:04:57.714Z,84.06
2022-09-03T00:06:10.604Z,84.02
2022-09-03T00:07:26.682Z,83.85
2022-09-03T00:09:00.542Z,83.89
2022-09-03T00:10:15.643Z,84.57
2022-09-03T00:11:28.988Z,84.42
2022-09-03T00:12:40.708Z,84.66
2022-09-03T00:13:50.292Z,84.69
2022-09-03T00:15:02.453Z,84.98
2022-09-03T00:16:12.881Z,84.54
2022-09-03T00:17:22.933Z,84.72
2022-09-03T00:18:31.741Z,84.55
2022-09-03T00:19:42.266Z,84.84
2022-09-03T00:20:56.369Z,85.01
2022-09-03T00:22:11.620Z,85.13
2022-09-03T00:23:28.241Z,85.01
2022-09-03T00:24:37.222Z,84.56
2022-09-03T00:26:17.843Z,84.32
2022-09-03T00:27:27.324Z,83.63
2022-09-03T00:28:46.045Z,83.01
2022-09-03T00:30:00.885Z,83.17
2022-09-03T00:31:16.739Z,82.46
2022-09-03T00:32:41.546Z,83.37
2022-09-03T00:33:48.390Z,83.81
2022-09-03T00:34:58.185Z,83.93
2022-09-03T00:36:04.219Z,84.28
2022-09-03T00:37:10.276Z,85.07
2022-09-03T00:38:18.210Z,84.65
2022-09-03T00:39:23.949Z,84.08
2022-09-03T00:40:40.035Z,84.00
2022-09-03T00:42:07.105Z,83.88
2022-09-03T00:43:48.419Z,84.42
2022-09-03T00:45:01.155Z,84.17
2022-09-03T00:46:21.315Z,84.18
2022-09-03T00:48:05.656Z,83.71
2022-09-03T00:49:50.237Z,84.03
2022-09-03T00:51:17.781Z,83.70
2022-09-03T00:52:39.819Z,83.25
2022-09-03T00:54:08.905Z,83.91
2022-09-03T00:55:36.168Z,83.57
2022-09-03T00:56:59.986Z,83.80
2022-09-03T00:58:18.020Z,83.68
2022-09-03T00:59:57.873Z,83.81
2022-09-03T01:01:17.362Z,83.79
2022-09-03T01:02:47.084Z,84.07
2022-09-03T01:04:08.481Z,84.06
2022-09-03T01:05:23.135Z,83.75
2022-09-03T01:06:44.828Z,84.05
2022-09-03T01:08:09.041Z,84.17
2022-09-03T01:09:49.347Z,84.58
2022-09-03T01:11:01.719Z,84.07
2022-09-03T01:12:36.440Z,84.62
2022-09-03T01:13:48.848Z,84.78
2022-09-03T01:15:13.047Z,84.69
2022-09-03T01:16:21.965Z,84.52
2022-09-03T01:17:33.845Z,84.28
2022-09-03T01:18:53.505Z,84.85
2022-09-03T01:20:12.934Z,85.21
2022-09-03T01:21:53.337Z,84.53
2022-09-03T01:23:10.023Z,85.15
2022-09-03T01:25:00.453Z,85.18
2022-09-03T01:26:28.249Z,84.59
2022-09-03T01:27:47.013Z,85.20
2022-09-03T01:28:56.848Z,84.85
2022-09-03T01:30:06.702Z,84.70
2022-09-03T01:31:40.485Z,84.39
2022-09-03T01:33:11.799Z,84.09
2022-09-03T01:34:25.751Z,84.95
2022-09-03T01:35:47.442Z,85.22
2022-09-03T01:37:24.632Z,84.76
2022-09-03T01:38:33.174Z,84.77
2022-09-03T01:39:54.371Z,84.97
2022-09-03T01:41:56.137Z,84.96
2022-09-03T01:43:35.977Z,84.51
2022-09-03T01:45:06.705Z,84.85
2022-09-03T01:46:25.281Z,84.69
2022-09-03T01:47:55.267Z,85.31
2022-09-03T01:49:22.905Z,85.92
2022-09-03T01:50:58.089Z,85.98
2022-09-03T01:52:26.513Z,85.25
2022-09-03T01:55:26.775Z,85.06
2022-09-03T01:56:42.069Z,85.14
2022-09-03T01:57:57.533Z,84.69
2022-09-03T01:59:21.573Z,84.62
2022-09-03T02:00:26.331Z,84.26
2022-09-03T02:01:37.782Z,85.18
2022-09-03T02:02:43.834Z,85.09
2022-09-03T02:03:50.538Z,84.88
2022-09-03T02:05:02.969Z,84.28
2022-09-03T02:06:08.258Z,84.61
2022-09-03T02:07:11.435Z,84.52
2022-09-03T02:08:14.583Z,84.22
2022-09-03T02:09:18.991Z,83.75
2022-09-03T02:10:33.774Z,84.09
2022-09-03T02:11:37.512Z,84.48
2022-09-03T02:12:44.246Z,84.64
2022-09-03T02:13:58.736Z,84.20
2022-09-03T02:15:05.334Z,84.28
2022-09-03T02:16:14.881Z,84.17
2022-09-03T02:17:18.043Z,84.86
2022-09-03T02:18:30.346Z,85.01
2022-09-03T02:19:35.479Z,85.71
2022-09-03T02:20:39.143Z,85.52
2022-09-03T02:21:53.557Z,86.21
2022-09-03T02:22:58.060Z,86.17
2022-09-03T02:24:01.295Z,86.30
2022-09-03T02:25:04.585Z,86.11
2022-09-03T02:26:10.751Z,85.56
2022-09-03T02:27:14.244Z,85.77
2022-09-03T02:28:17.868Z,85.82
2022-09-03T02:29:21.860Z,85.96
2022-09-03T02:30:25.362Z,85.67
2022-09-03T02:31:29.121Z,85.93
2022-09-03T02:32:33.022Z,85.39
2022-09-03T02:33:39.462Z,85.84
2022-09-03T02:34:44.337Z,85.75
2022-09-03T02:35:47.905Z,85.73
2022-09-03T02:36:50.956Z,85.41
2022-09-03T02:37:54.266Z,85.31
2022-09-03T02:38:57.221Z,85.19
2022-09-03T02:40:00.345Z,85.04
2022-09-03T02:41:03.485Z,84.97
2022-09-03T02:42:06.602Z,85.33
2022-09-03T02:43:34.855Z,84.96
2022-09-03T02:44:42.433Z,84.97
2022-09-03T02:45:51.785Z,85.20
2022-09-03T02:47:03.553Z,85.23
2022-09-03T02:48:09.638Z,85.20
2022-09-03T02:49:12.882Z,85.57
2022-09-03T02:50:16.076Z,85.42
2022-09-03T02:51:19.122Z,84.99
2022-09-03T02:52:22.035Z,85.08
2022-09-03T02:53:25.262Z,85.26
2022-09-03T02:54:29.169Z,85.74
2022-09-03T02:55:32.130Z,86.60
2022-09-03T02:56:35.378Z,86.40
2022-09-03T02:57:38.786Z,86.80
2022-09-03T02:58:41.760Z,86.70
2022-09-03T02:59:45.786Z,86.09
2022-09-03T03:00:49.647Z,85.75
2022-09-03T03:01:52.578Z,85.69
2022-09-03T03:02:56.763Z,86.29
2022-09-03T03:03:59.745Z,86.19
2022-09-03T03:05:02.751Z,85.78
2022-09-03T03:06:07.295Z,85.35
2022-09-03T03:07:10.279Z,85.70
2022-09-03T03:08:15.466Z,85.34
2022-09-03T03:09:19.037Z,85.16
2022-09-03T03:10:22.012Z,84.92
2022-09-03T03:11:25.663Z,85.19
2022-09-03T03:12:31.032Z,85.53
2022-09-03T03:13:35.815Z,85.80
2022-09-03T03:14:38.918Z,85.81
2022-09-03T03:15:42.397Z,85.62
2022-09-03T03:16:45.416Z,85.84
2022-09-03T03:17:48.791Z,85.78
2022-09-03T03:18:53.141Z,85.13
2022-09-03T03:19:55.988Z,84.34
2022-09-03T03:21:08.252Z,84.55
2022-09-03T03:22:11.159Z,84.10
2022-09-03T03:23:14.556Z,84.40
2022-09-03T03:24:17.474Z,84.70
2022-09-03T03:25:20.558Z,85.16
2022-09-03T03:26:24.488Z,85.99
2022-09-03T03:27:28.123Z,86.66
2022-09-03T03:28:34.591Z,86.74
2022-09-03T03:29:37.594Z,86.10
2022-09-03T03:30:43.276Z,86.30
2022-09-03T03:31:46.431Z,86.07
2022-09-03T03:32:49.724Z,85.86
2022-09-03T03:33:58.336Z,85.99
2022-09-03T03:35:01.191Z,85.76
2022-09-03T03:36:15.781Z,85.90
2022-09-03T03:37:18.755Z,85.93
2022-09-03T03:38:21.782Z,86.15
2022-09-03T03:39:24.813Z,86.12
2022-09-03T03:40:28.187Z,86.46
2022-09-03T03:41:34.005Z,86.40
2022-09-03T03:42:37.065Z,86.19
2022-09-03T03:43:39.997Z,86.56
2022-09-03T03:44:44.445Z,86.64
2022-09-03T03:45:59.961Z,86.23
2022-09-03T03:47:05.396Z,85.54
2022-09-03T03:48:08.444Z,85.55
2022-09-03T03:49:12.052Z,85.48
2022-09-03T03:50:15.146Z,85.84
2022-09-03T03:51:18.916Z,85.56
2022-09-03T03:52:21.803Z,86.32
2022-09-03T03:53:24.770Z,86.44
2022-09-03T03:54:27.684Z,86.30
2022-09-03T03:55:35.069Z,86.26
2022-09-03T03:56:38.694Z,85.76
2022-09-03T03:57:41.776Z,86.18
2022-09-03T03:58:48.754Z,86.05
2022-09-03T03:59:51.754Z,86.72
2022-09-03T04:00:54.737Z,87.16
2022-09-03T04:01:57.807Z,87.03
2022-09-03T04:03:01.089Z,87.11
2022-09-03T04:04:04.123Z,87.05
2022-09-03T04:05:07.383Z,86.80
2022-09-03T04:06:14.276Z,86.59
2022-09-03T04:07:17.204Z,86.80
2022-09-03T04:08:20.171Z,87.07
2022-09-03T04:09:23.095Z,86.45
2022-09-03T04:10:25.986Z,85.77
2022-09-03T04:11:28.807Z,85.74
2022-09-03T04:12:31.700Z,85.75
2022-09-03T04:13:37.520Z,86.08
2022-09-03T04:14:40.433Z,85.96
2022-09-03T04:15:43.473Z,85.99
2022-09-03T04:16:49.398Z,86.07
2022-09-03T04:17:55.575Z,86.12
2022-09-03T04:18:59.018Z,86.29
2022-09-03T04:20:02.232Z,86.49
2022-09-03T04:21:11.477Z,85.93
2022-09-03T04:22:16.102Z,85.98
2022-09-03T04:23:19.283Z,86.34
2022-09-03T04:24:22.664Z,86.96
2022-09-03T04:25:25.526Z,86.73
2022-09-03T04:26:31.805Z,87.28
2022-09-03T04:27:34.820Z,87.11
2022-09-03T04:28:38.468Z,87.01
2022-09-03T04:29:41.317Z,86.84
2022-09-03T04:30:47.508Z,86.58
2022-09-03T04:32:10.824Z,85.79
2022-09-03T04:33:16.157Z,85.70
2022-09-03T04:34:19.465Z,86.01
2022-09-03T04:35:24.082Z,85.87
2022-09-03T04:36:28.785Z,86.01
2022-09-03T04:37:33.499Z,86.56
2022-09-03T04:38:39.057Z,86.05
2022-09-03T04:39:42.149Z,85.73
2022-09-03T04:40:52.684Z,85.67
2022-09-03T04:41:55.686Z,85.79
2022-09-03T04:42:59.675Z,86.09
2022-09-03T04:44:02.773Z,86.02
2022-09-03T04:45:06.659Z,86.19
2022-09-03T04:46:17.625Z,86.20
2022-09-03T04:47:21.233Z,86.36
2022-09-03T04:48:24.444Z,86.38
2022-09-03T04:49:27.377Z,86.88
2022-09-03T04:50:32.759Z,86.51
2022-09-03T04:51:38.357Z,86.71
2022-09-03T04:52:42.004Z,86.52
2022-09-03T04:53:47.432Z,86.41
2022-09-03T04:54:51.229Z,86.86
2022-09-03T04:55:54.100Z,86.89
2022-09-03T04:56:57.039Z,87.06
2022-09-03T04:58:00.093Z,86.81
2022-09-03T04:59:06.416Z,86.64
2022-09-03T05:00:12.112Z,86.55
2022-09-03T05:01:23.917Z,86.82
2022-09-03T05:02:30.961Z,87.04
2022-09-03T05:03:34.654Z,87.77
2022-09-03T05:04:37.493Z,87.39
2022-09-03T05:05:40.536Z,87.18
2022-09-03T05:06:45.666Z,87.15
2022-09-03T05:07:48.622Z,87.70
2022-09-03T05:08:53.170Z,87.68
2022-09-03T05:09:57.211Z,87.61
2022-09-03T05:11:01.120Z,87.62
2022-09-03T05:12:04.366Z,87.49
2022-09-03T05:13:07.367Z,87.15
2022-09-03T05:14:12.995Z,87.34
2022-09-03T05:15:16.637Z,87.21
2022-09-03T05:16:20.669Z,87.43
2022-09-03T05:17:23.713Z,87.33
2022-09-03T05:18:26.584Z,87.23
2022-09-03T05:19:29.501Z,87.72
2022-09-03T05:20:33.068Z,87.96
2022-09-03T05:21:36.975Z,87.52
2022-09-03T05:22:39.848Z,87.37
2022-09-03T05:23:45.773Z,87.23
2022-09-03T05:24:49.290Z,87.10
2022-09-03T05:25:58.605Z,86.97
2022-09-03T05:27:02.580Z,87.30
2022-09-03T05:28:05.557Z,87.42
2022-09-03T05:29:08.672Z,87.48
2022-09-03T05:30:12.060Z,86.91
2022-09-03T05:31:18.535Z,86.79
2022-09-03T05:32:21.620Z,87.02
2022-09-03T05:33:25.104Z,86.96
2022-09-03T05:34:28.086Z,87.15
2022-09-03T05:35:31.794Z,86.83
2022-09-03T05:36:37.175Z,86.66
2022-09-03T05:37:40.110Z,86.58
2022-09-03T05:38:43.669Z,86.47
2022-09-03T05:39:46.574Z,86.33
2022-09-03T05:40:49.485Z,86.82
2022-09-03T05:41:52.661Z,86.66
2022-09-03T05:42:58.816Z,86.41
2022-09-03T05:44:01.889Z,86.31
2022-09-03T05:45:13.725Z,86.33
2022-09-03T05:46:18.643Z,86.51
2022-09-03T05:47:21.948Z,86.83
2022-09-03T05:48:25.017Z,86.71
2022-09-03T05:49:31.920Z,86.56
2022-09-03T05:50:35.215Z,86.20
2022-09-03T05:51:42.756Z,86.25
2022-09-03T05:52:45.594Z,86.25
2022-09-03T05:53:49.748Z,86.33
2022-09-03T05:54:52.646Z,86.26
2022-09-03T05:56:00.384Z,86.67
2022-09-03T05:57:03.380Z,86.17
2022-09-03T05:58:06.376Z,85.81
2022-09-03T05:59:10.606Z,85.69
2022-09-03T06:00:13.564Z,85.86
2022-09-03T06:01:17.979Z,85.91
2022-09-03T06:02:21.015Z,83.71
2022-09-03T06:03:25.467Z,84.21
2022-09-03T06:04:28.645Z,83.02
2022-09-03T06:05:31.525Z,83.60
2022-09-03T06:06:36.742Z,81.82
2022-09-03T06:07:40.192Z,79.44
2022-09-03T06:08:45.133Z,80.55
2022-09-03T06:09:48.022Z,79.62
2022-09-03T06:10:50.920Z,81.25
2022-09-03T06:11:54.614Z,81.40
2022-09-03T06:13:04.020Z,80.43
2022-09-03T06:14:08.785Z,80.87
2022-09-03T06:15:11.949Z,80.95
2022-09-03T06:16:16.009Z,80.14
2022-09-03T06:17:19.162Z,79.92
2022-09-03T06:18:22.032Z,77.61
2022-09-03T06:19:25.086Z,77.17
2022-09-03T06:20:29.998Z,76.12
2022-09-03T06:21:33.751Z,76.71
2022-09-03T06:22:36.662Z,76.23
2022-09-03T06:23:45.765Z,75.14
2022-09-03T06:24:50.134Z,75.53
2022-09-03T06:26:12.953Z,76.54
2022-09-03T06:27:15.832Z,76.55
2022-09-03T06:28:18.799Z,76.53
2022-09-03T06:29:26.283Z,76.24
2022-09-03T06:30:29.105Z,75.49
2022-09-03T06:31:32.204Z,75.26
2022-09-03T06:32:35.240Z,75.42
2022-09-03T06:33:38.919Z,74.22
2022-09-03T06:34:45.916Z,72.90
2022-09-03T06:35:52.103Z,74.29
2022-09-03T06:36:54.934Z,72.27
2022-09-03T06:38:00.170Z,73.64
2022-09-03T06:39:03.425Z,72.37
2022-09-03T06:40:13.367Z,69.86
2022-09-03T06:41:25.374Z,69.49
2022-09-03T06:42:29.271Z,69.52
2022-09-03T06:43:35.317Z,67.91
2022-09-03T06:44:38.152Z,67.83
2022-09-03T06:45:41.091Z,67.60
2022-09-03T06:46:44.244Z,66.81
2022-09-03T06:47:47.144Z,67.64
2022-09-03T06:48:53.690Z,67.50
2022-09-03T06:49:56.702Z,67.62
2022-09-03T06:51:07.016Z,67.54
2022-09-03T06:52:09.934Z,66.41
2022-09-03T06:53:12.781Z,66.01
2022-09-03T06:54:16.564Z,65.31
2022-09-03T06:55:19.612Z,64.92
2022-09-03T06:56:27.008Z,65.67
2022-09-03T06:57:30.899Z,65.55
2022-09-03T06:58:38.046Z,65.29
2022-09-03T06:59:41.061Z,64.45
2022-09-03T07:00:45.018Z,63.44
2022-09-03T07:01:48.336Z,64.34
2022-09-03T07:02:59.632Z,64.54
2022-09-03T07:04:05.207Z,63.97
2022-09-03T07:05:09.333Z,64.13
2022-09-03T07:06:15.477Z,63.90
2022-09-03T07:07:18.932Z,63.45
2022-09-03T07:08:21.887Z,62.30
2022-09-03T07:09:24.907Z,61.48
2022-09-03T07:10:28.341Z,61.21
2022-09-03T07:11:33.703Z,61.26
2022-09-03T07:12:37.866Z,61.65
2022-09-03T07:13:43.878Z,62.72
2022-09-03T07:14:47.671Z,64.20
2022-09-03T07:16:24.011Z,62.90
2022-09-03T07:17:26.944Z,60.88
2022-09-03T07:18:31.915Z,59.05
2022-09-03T07:19:34.818Z,58.67
2022-09-03T07:20:37.731Z,59.72
2022-09-03T07:21:50.211Z,59.14
2022-09-03T07:22:57.063Z,58.91
2022-09-03T07:24:00.730Z,59.15
2022-09-03T07:25:04.374Z,58.60
2022-09-03T07:26:11.106Z,57.91
2022-09-03T07:27:15.124Z,57.57
2022-09-03T07:28:18.275Z,56.71
2022-09-03T07:29:21.647Z,57.05
2022-09-03T07:30:26.799Z,57.02
2022-09-03T07:31:35.511Z,55.97
2022-09-03T07:32:40.735Z,56.55
2022-09-03T07:33:43.723Z,56.34
2022-09-03T07:34:46.636Z,56.18
2022-09-03T07:35:50.388Z,55.49
2022-09-03T07:36:54.253Z,56.00
2022-09-03T07:37:57.303Z,53.51
2022-09-03T07:39:00.297Z,52.91
2022-09-03T07:40:03.649Z,53.85
2022-09-03T07:41:08.535Z,54.66
2022-09-03T07:42:11.480Z,52.81
2022-09-03T07:43:14.714Z,51.38
2022-09-03T07:44:23.119Z,52.05
2022-09-03T07:45:26.000Z,52.65
2022-09-03T07:46:29.320Z,52.22
2022-09-03T07:47:32.542Z,51.75
2022-09-03T07:48:37.490Z,51.28
2022-09-03T07:49:40.868Z,51.42
2022-09-03T07:50:44.260Z,52.54
2022-09-03T07:51:50.942Z,52.32
2022-09-03T07:52:58.988Z,53.64
2022-09-03T07:54:06.496Z,53.60
2022-09-03T07:55:10.179Z,54.50
2022-09-03T07:56:13.988Z,53.95
2022-09-03T07:57:17.167Z,53.29
2022-09-03T07:58:25.425Z,52.09
2022-09-03T07:59:28.577Z,52.46
2022-09-03T08:00:34.246Z,52.04
2022-09-03T08:01:38.420Z,51.76
2022-09-03T08:02:46.459Z,51.82
2022-09-03T08:03:51.490Z,51.52
2022-09-03T08:04:54.469Z,50.80
2022-09-03T08:06:07.790Z,50.51
2022-09-03T08:07:12.136Z,50.19
2022-09-03T08:08:20.996Z,51.57
2022-09-03T08:09:24.116Z,51.67
2022-09-03T08:10:29.067Z,51.95
2022-09-03T08:11:33.683Z,52.53
2022-09-03T08:12:36.553Z,51.26
2022-09-03T08:13:41.016Z,51.29
2022-09-03T08:14:44.021Z,49.59
2022-09-03T08:15:57.240Z,49.45
2022-09-03T08:17:00.521Z,48.48
2022-09-03T08:18:05.971Z,48.66
2022-09-03T08:19:09.532Z,50.10
2022-09-03T08:20:12.996Z,50.07
2022-09-03T08:21:18.966Z,50.12
2022-09-03T08:22:22.926Z,49.58
2022-09-03T08:23:25.841Z,49.81
2022-09-03T08:24:28.911Z,48.94
2022-09-03T08:25:31.813Z,48.43
2022-09-03T08:26:38.178Z,47.98
2022-09-03T08:27:41.668Z,48.16
2022-09-03T08:28:44.983Z,47.38
2022-09-03T08:29:48.835Z,47.50
2022-09-03T08:30:51.747Z,48.86
2022-09-03T08:31:54.769Z,47.34
2022-09-03T08:32:57.760Z,46.75
2022-09-03T08:34:06.989Z,47.56
2022-09-03T08:35:10.242Z,46.43
2022-09-03T08:36:26.100Z,47.79
2022-09-03T08:37:29.277Z,46.43
2022-09-03T08:38:34.142Z,46.14
2022-09-03T08:39:37.171Z,47.10
2022-09-03T08:40:40.276Z,46.91
2022-09-03T08:41:58.444Z,46.93
2022-09-03T08:43:19.312Z,45.84
2022-09-03T08:44:41.206Z,45.50
2022-09-03T08:45:44.063Z,43.90
2022-09-03T08:47:02.145Z,42.71
2022-09-03T08:48:10.601Z,42.52
2022-09-03T08:49:17.722Z,44.59
2022-09-03T08:50:35.844Z,44.81
2022-09-03T08:51:40.623Z,44.75
2022-09-03T08:52:50.562Z,42.31
2022-09-03T08:53:57.083Z,42.72
2022-09-03T08:55:18.302Z,43.09
2022-09-03T08:56:31.969Z,42.27
2022-09-03T08:57:44.382Z,41.78
2022-09-03T08:58:47.415Z,42.43
2022-09-03T08:59:58.747Z,42.50
2022-09-03T09:01:11.790Z,43.69
2022-09-03T09:02:40.967Z,43.29
2022-09-03T09:04:09.309Z,42.59
2022-09-03T09:05:24.873Z,41.76
2022-09-03T09:06:50.052Z,41.99
2022-09-03T09:08:08.114Z,41.86
2022-09-03T09:09:34.454Z,41.45
2022-09-03T09:10:55.702Z,41.05
2022-09-03T09:12:16.940Z,42.33
2022-09-03T09:13:34.874Z,41.33
2022-09-03T09:15:02.893Z,42.51
2022-09-03T09:16:27.525Z,41.25
2022-09-03T09:18:16.254Z,40.54
2022-09-03T09:19:38.113Z,41.48
2022-09-03T09:20:45.520Z,43.04
2022-09-03T09:21:57.645Z,40.44
2022-09-03T09:23:06.716Z,40.29
2022-09-03T09:24:22.217Z,40.06
2022-09-03T09:25:30.518Z,39.37
2022-09-03T09:26:33.932Z,38.98
2022-09-03T09:27:36.926Z,38.56
2022-09-03T09:28:39.973Z,39.38
2022-09-03T09:29:44.420Z,38.17
2022-09-03T09:30:50.098Z,40.71
2022-09-03T09:31:54.441Z,39.13
2022-09-03T09:32:57.660Z,39.11
2022-09-03T09:34:07.414Z,39.48
2022-09-03T09:35:11.170Z,38.55
2022-09-03T09:36:19.917Z,37.79
2022-09-03T09:37:26.061Z,37.62
2022-09-03T09:38:31.204Z,37.35
2022-09-03T09:39:34.205Z,38.92
2022-09-03T09:40:45.184Z,37.85
2022-09-03T09:42:05.722Z,38.17
2022-09-03T09:43:21.539Z,37.04
2022-09-03T09:44:27.036Z,38.33
2022-09-03T09:45:30.099Z,37.59
2022-09-03T09:46:39.025Z,37.15
2022-09-03T09:47:42.736Z,37.48
2022-09-03T09:48:59.195Z,38.21
2022-09-03T09:50:04.058Z,38.27
2022-09-03T09:51:18.757Z,39.19
2022-09-03T09:52:26.297Z,40.07
2022-09-03T09:53:30.450Z,38.21
2022-09-03T09:54:33.363Z,39.27
2022-09-03T09:55:51.232Z,39.94
2022-09-03T09:57:03.964Z,37.95
2022-09-03T09:58:14.651Z,38.46
2022-09-03T09:59:23.162Z,36.54
2022-09-03T10:00:27.320Z,35.78
2022-09-03T10:01:33.046Z,36.35
2022-09-03T10:02:40.699Z,36.45
2022-09-03T10:03:59.013Z,35.19
2022-09-03T10:05:14.016Z,33.52
2022-09-03T10:06:36.058Z,34.75
2022-09-03T10:07:39.095Z,34.42
2022-09-03T10:08:43.143Z,34.08
2022-09-03T10:09:46.669Z,34.05
2022-09-03T10:10:53.225Z,33.35
2022-09-03T10:11:56.266Z,33.48
2022-09-03T10:13:19.648Z,33.11
2022-09-03T10:14:24.742Z,33.97
2022-09-03T10:15:42.774Z,33.88
2022-09-03T10:16:50.983Z,35.50
2022-09-03T10:18:00.693Z,35.64
2022-09-03T10:19:12.525Z,35.48
2022-09-03T10:20:27.691Z,35.47
2022-09-03T10:21:52.547Z,33.45
2022-09-03T10:22:57.652Z,34.59
2022-09-03T10:24:18.781Z,35.83
2022-09-03T10:25:24.654Z,35.21
2022-09-03T10:26:32.397Z,32.98
2022-09-03T10:27:36.615Z,33.03
2022-09-03T10:28:50.852Z,33.38
2022-09-03T10:30:00.779Z,34.18
2022-09-03T10:31:19.391Z,33.53
2022-09-03T10:32:39.116Z,33.43
2022-09-03T10:34:35.243Z,33.77
2022-09-03T10:35:47.469Z,33.87
2022-09-03T10:37:16.767Z,34.06
2022-09-03T10:38:33.279Z,31.91
2022-09-03T10:39:50.184Z,32.94
2022-09-03T10:41:04.741Z,32.87
2022-09-03T10:42:37.887Z,31.62
2022-09-03T10:44:13.220Z,31.26
2022-09-03T10:45:37.651Z,32.51
2022-09-03T10:47:10.449Z,31.49
2022-09-03T10:48:39.680Z,31.99
2022-09-03T10:50:10.575Z,29.66
2022-09-03T10:51:26.667Z,30.21
2022-09-03T10:52:49.861Z,30.03
2022-09-03T10:54:23.163Z,30.56
2022-09-03T10:56:00.742Z,30.32
2022-09-03T10:57:38.498Z,29.10
2022-09-03T10:58:50.283Z,28.51
2022-09-03T10:59:56.086Z,29.78
2022-09-03T11:01:07.486Z,29.97
2022-09-03T11:02:22.090Z,30.54
2022-09-03T11:03:50.003Z,30.24
2022-09-03T11:05:19.368Z,30.55
2022-09-03T11:06:29.828Z,31.02
2022-09-03T11:07:40.447Z,31.26
2022-09-03T11:08:52.301Z,32.45
2022-09-03T11:10:06.353Z,30.67
2022-09-03T11:11:20.388Z,30.99
2022-09-03T11:12:29.722Z,32.35
2022-09-03T11:13:52.069Z,29.06
2022-09-03T11:15:17.139Z,29.56
2022-09-03T11:16:34.405Z,29.25
2022-09-03T11:17:43.571Z,28.88
2022-09-03T11:18:58.672Z,29.15
2022-09-03T11:20:04.599Z,28.65
2022-09-03T11:21:14.312Z,28.21
2022-09-03T11:22:20.855Z,26.13
2022-09-03T11:23:28.169Z,25.87
2022-09-03T11:24:34.277Z,28.47
2022-09-03T11:25:57.418Z,28.62
2022-09-03T11:27:12.807Z,28.50
2022-09-03T11:28:24.848Z,29.72
2022-09-03T11:29:40.792Z,30.04
2022-09-03T11:31:14.318Z,30.04
2022-09-03T11:32:25.297Z,29.41
2022-09-03T11:33:29.642Z,29.74
2022-09-03T11:34:50.080Z,29.75
2022-09-03T11:36:02.911Z,30.87
2022-09-03T11:37:20.148Z,31.08
2022-09-03T11:38:29.406Z,31.13
2022-09-03T11:39:32.394Z,30.54
2022-09-03T11:40:38.187Z,31.07
2022-09-03T11:41:41.395Z,30.24
2022-09-03T11:42:47.427Z,30.68
2022-09-03T11:43:59.120Z,29.37
2022-09-03T11:45:22.650Z,28.70
2022-09-03T11:46:27.405Z,29.59
2022-09-03T11:47:44.548Z,29.01
2022-09-03T11:49:10.460Z,30.45
2022-09-03T11:50:24.916Z,29.78
2022-09-03T11:51:30.546Z,29.66
2022-09-03T11:52:33.918Z,29.32
2022-09-03T11:53:37.224Z,30.17
2022-09-03T11:54:46.470Z,31.32
2022-09-03T11:56:05.503Z,29.61
2022-09-03T11:57:16.145Z,30.51
2022-09-03T11:58:38.114Z,31.08
2022-09-03T11:59:44.055Z,29.39
2022-09-03T12:00:50.830Z,30.65
2022-09-03T12:02:03.160Z,30.73
2022-09-03T12:03:06.256Z,32.73
2022-09-03T12:04:11.146Z,30.06
2022-09-03T12:05:27.692Z,31.42
2022-09-03T12:07:09.210Z,31.63
2022-09-03T12:08:59.532Z,30.84
2022-09-03T12:10:40.175Z,29.88
2022-09-03T12:11:48.610Z,31.66
2022-09-03T12:13:16.646Z,31.85
2022-09-03T12:14:41.968Z,30.82
2022-09-03T12:16:06.100Z,30.41
2022-09-03T12:17:31.116Z,29.70
2022-09-03T12:18:36.092Z,30.66
2022-09-03T12:19:56.245Z,30.73
2022-09-03T12:21:00.494Z,31.44
2022-09-03T12:22:06.143Z,30.93
2022-09-03T12:23:12.534Z,32.08
2022-09-03T12:24:15.601Z,33.24
2022-09-03T12:25:22.157Z,32.56
2022-09-03T12:26:27.692Z,31.59
2022-09-03T12:27:34.007Z,31.41
2022-09-03T12:28:45.157Z,29.50
2022-09-03T12:30:00.932Z,30.36
2022-09-03T12:31:08.472Z,29.77
2022-09-03T12:33:23.559Z,30.04
2022-09-03T12:34:27.638Z,29.67
2022-09-03T12:36:55.251Z,31.14
2022-09-03T12:38:08.428Z,31.13
2022-09-03T12:42:16.627Z,30.54
2022-09-03T12:44:46.379Z,30.50
2022-09-03T12:47:36.355Z,27.89
2022-09-03T12:48:43.548Z,29.53
2022-09-03T12:49:51.350Z,29.22
2022-09-03T12:51:48.198Z,27.87
2022-09-03T12:52:31.589Z,28.90
2022-09-03T12:53:34.789Z,30.25
2022-09-03T12:54:50.687Z,29.72
2022-09-03T12:55:59.366Z,29.45
2022-09-03T12:57:03.749Z,28.74
2022-09-03T12:58:14.289Z,31.10
2022-09-03T12:59:21.732Z,30.42
2022-09-03T13:00:25.005Z,28.74
2022-09-03T13:01:35.578Z,28.80
2022-09-03T13:02:50.473Z,30.24
2022-09-03T13:04:03.345Z,30.36
2022-09-03T13:05:11.191Z,30.82
2022-09-03T13:06:20.964Z,30.75
2022-09-03T13:07:37.586Z,32.59
2022-09-03T13:09:04.536Z,30.72
2022-09-03T13:10:24.239Z,31.14
2022-09-03T13:11:29.683Z,31.35
2022-09-03T13:12:53.432Z,32.66
2022-09-03T13:14:10.621Z,32.37
2022-09-03T13:15:31.454Z,32.20
2022-09-03T13:16:46.567Z,32.76
2022-09-03T13:18:08.235Z,33.41
2022-09-03T13:19:40.925Z,34.02
2022-09-03T13:21:04.424Z,35.75
2022-09-03T13:22:23.028Z,35.72
2022-09-03T13:23:53.750Z,36.11
2022-09-03T13:25:15.427Z,34.75
2022-09-03T13:26:45.086Z,33.08
2022-09-03T13:28:21.642Z,33.61
2022-09-03T13:29:55.638Z,31.86
2022-09-03T13:31:07.019Z,34.35
2022-09-03T13:32:46.906Z,32.29
2022-09-03T13:34:05.620Z,33.89
2022-09-03T13:35:27.843Z,33.21
2022-09-03T13:37:13.253Z,32.86
2022-09-03T13:38:45.228Z,33.84
2022-09-03T13:39:56.951Z,33.40
2022-09-03T13:41:20.723Z,33.04
2022-09-03T13:42:39.463Z,32.39
2022-09-03T13:43:47.462Z,33.10
2022-09-03T13:45:07.943Z,33.81
2022-09-03T13:46:22.693Z,33.74
2022-09-03T13:47:37.612Z,32.23
2022-09-03T13:49:01.535Z,32.43
2022-09-03T13:50:27.265Z,33.14
2022-09-03T13:51:38.718Z,31.87
2022-09-03T13:52:49.826Z,31.00
2022-09-03T13:53:59.819Z,30.18
2022-09-03T13:55:12.969Z,30.64
2022-09-03T13:56:32.271Z,30.75
2022-09-03T13:57:46.902Z,31.42
2022-09-03T13:59:00.868Z,31.37
2022-09-03T14:00:13.836Z,32.53
2022-09-03T14:01:22.273Z,32.95
2022-09-03T14:02:52.977Z,31.66
2022-09-03T14:04:00.894Z,32.42
2022-09-03T14:05:32.603Z,31.76
2022-09-03T14:06:41.324Z,32.15
2022-09-03T14:08:19.498Z,31.37
2022-09-03T14:09:56.511Z,31.98
2022-09-03T14:11:08.277Z,32.04
2022-09-03T14:12:20.516Z,32.94
2022-09-03T14:13:46.501Z,32.96
2022-09-03T14:15:16.240Z,33.69
2022-09-03T14:16:42.605Z,31.67
2022-09-03T14:18:16.241Z,31.29
2022-09-03T14:19:42.029Z,33.09
2022-09-03T14:20:55.299Z,33.05
2022-09-03T14:22:09.193Z,32.99
2022-09-03T14:23:46.010Z,33.02
2022-09-03T14:25:01.641Z,33.68
2022-09-03T14:26:07.900Z,32.96
2022-09-03T14:27:11.358Z,32.23
2022-09-03T14:28:34.962Z,32.41
2022-09-03T14:29:38.621Z,32.97
2022-09-03T14:30:56.622Z,33.44
2022-09-03T14:32:17.855Z,33.72
2022-09-03T14:33:44.916Z,33.15
2022-09-03T14:34:53.739Z,33.42
2022-09-03T14:36:09.584Z,32.27
2022-09-03T14:37:48.965Z,33.13
2022-09-03T14:39:18.145Z,33.65
2022-09-03T14:40:27.014Z,33.00
2022-09-03T14:41:51.207Z,33.78
2022-09-03T14:43:28.483Z,32.88
2022-09-03T14:44:36.770Z,32.86
2022-09-03T14:45:39.635Z,34.34
2022-09-03T14:46:48.599Z,33.23
2022-09-03T14:48:16.465Z,33.89
2022-09-03T14:49:47.617Z,33.01
2022-09-03T14:51:11.091Z,33.37
2022-09-03T14:52:50.298Z,33.50
2022-09-03T14:54:18.178Z,35.04
2022-09-03T14:55:39.542Z,34.40
2022-09-03T14:57:32.159Z,34.23
2022-09-03T14:59:06.222Z,33.06
2022-09-03T15:00:20.133Z,33.64
2022-09-03T15:01:38.786Z,33.48
2022-09-03T15:02:58.022Z,34.34
2022-09-03T15:04:19.454Z,33.98
2022-09-03T15:05:59.032Z,34.34
2022-09-03T15:07:28.005Z,35.06
2022-09-03T15:08:43.989Z,35.08
2022-09-03T15:10:13.119Z,34.57
2022-09-03T15:11:20.336Z,35.56
2022-09-03T15:12:36.189Z,34.86
2022-09-03T15:14:10.780Z,34.38
2022-09-03T15:15:27.655Z,35.83
2022-09-03T15:16:45.864Z,33.44
2022-09-03T15:17:57.860Z,32.99
2022-09-03T15:19:33.235Z,33.50
2022-09-03T15:20:53.408Z,32.38
2022-09-03T15:22:29.931Z,32.37
2022-09-03T15:23:38.608Z,33.09
2022-09-03T15:25:03.174Z,32.93
2022-09-03T15:26:47.637Z,32.80
2022-09-03T15:28:06.455Z,33.61
2022-09-03T15:29:21.156Z,34.43
2022-09-03T15:30:31.641Z,34.70